createdAt,value
2022-08-16T00:00:46.760Z,100638.78
2022-08-16T00:03:14.941Z,100650.22
2022-08-16T00:05:48.291Z,100653.44
2022-08-16T00:08:36.707Z,100660.72
2022-08-16T00:11:15.740Z,100660.09
2022-08-16T00:13:53.960Z,100655.44
2022-08-16T00:17:05.947Z,100667.25
2022-08-16T00:19:22.462Z,100681.47
2022-08-16T00:21:54.527Z,100665.03
2022-08-16T00:24:31.416Z,100663.56
2022-08-16T00:27:05.046Z,100672.94
2022-08-16T00:29:32.934Z,100676.69
2022-08-16T00:32:06.336Z,100672.78
2022-08-16T00:34:43.293Z,100662.50
2022-08-16T00:37:21.259Z,100676.00
2022-08-16T00:39:57.201Z,100683.19
2022-08-16T00:42:30.605Z,100672.69
2022-08-16T00:45:20.528Z,100685.84
2022-08-16T00:47:54.748Z,100685.09
2022-08-16T00:50:36.586Z,100697.75
2022-08-16T00:53:10.851Z,100691.53
2022-08-16T00:56:05.653Z,100699.16
2022-08-16T00:58:37.370Z,100701.84
2022-08-16T01:01:08.201Z,100701.56
2022-08-16T01:03:41.737Z,100715.69
2022-08-16T01:06:40.144Z,100715.78
2022-08-16T01:09:01.696Z,100706.84
2022-08-16T01:11:32.329Z,100706.84
2022-08-16T01:14:20.125Z,100717.31
2022-08-16T01:16:49.597Z,100713.44
2022-08-16T01:19:41.705Z,100714.41
2022-08-16T01:22:48.527Z,100717.94
2022-08-16T01:25:37.062Z,100716.31
2022-08-16T01:28:11.312Z,100711.44
2022-08-16T01:30:56.483Z,100715.81
2022-08-16T01:33:24.137Z,100716.03
2022-08-16T01:36:09.363Z,100706.28
2022-08-16T01:38:51.261Z,100699.81
2022-08-16T01:41:30.736Z,100709.22
2022-08-16T01:44:01.036Z,100701.72
2022-08-16T01:46:39.567Z,100709.44
2022-08-16T01:49:25.443Z,100700.66
2022-08-16T01:52:29.619Z,100701.84
2022-08-16T01:54:58.487Z,100706.66
2022-08-16T01:57:28.323Z,100692.03
2022-08-16T01:59:59.794Z,100698.13
2022-08-16T02:02:28.454Z,100704.66
2022-08-16T02:05:00.100Z,100708.28
2022-08-16T02:07:30.558Z,100699.63
2022-08-16T02:09:59.639Z,100709.22
2022-08-16T02:12:49.708Z,100716.31
2022-08-16T02:15:25.495Z,100721.72
2022-08-16T02:17:58.426Z,100723.78
2022-08-16T02:20:29.201Z,100722.06
2022-08-16T02:22:59.658Z,100720.47
2022-08-16T02:25:50.871Z,100720.81
2022-08-16T02:28:19.154Z,100712.44
2022-08-16T02:30:50.887Z,100702.41
2022-08-16T02:33:24.501Z,100706.78
2022-08-16T02:35:55.081Z,100717.59
2022-08-16T02:38:27.790Z,100706.28
2022-08-16T02:40:57.041Z,100709.47
2022-08-16T02:43:33.037Z,100706.03
2022-08-16T02:46:01.879Z,100706.03
2022-08-16T02:48:38.430Z,100703.38
2022-08-16T02:51:10.770Z,100714.06
2022-08-16T02:53:44.822Z,100709.72
2022-08-16T02:56:18.665Z,100711.63
2022-08-16T02:58:49.328Z,100712.56
2022-08-16T03:01:33.710Z,100715.25
2022-08-16T03:04:29.170Z,100715.47
2022-08-16T03:06:56.747Z,100704.97
2022-08-16T03:09:25.675Z,100711.41
2022-08-16T03:11:57.030Z,100714.28
2022-08-16T03:14:24.977Z,100716.94
2022-08-16T03:17:00.161Z,100710.75
2022-08-16T03:19:48.087Z,100702.94
2022-08-16T03:22:28.319Z,100710.56
2022-08-16T03:25:02.467Z,100716.75
2022-08-16T03:27:32.269Z,100718.56
2022-08-16T03:30:17.649Z,100709.91
2022-08-16T03:32:51.474Z,100718.66
2022-08-16T03:35:32.852Z,100718.78
2022-08-16T03:38:04.387Z,100718.88
2022-08-16T03:40:51.790Z,100704.13
2022-08-16T03:43:21.475Z,100709.91
2022-08-16T03:45:52.458Z,100706.56
2022-08-16T03:48:36.775Z,100710.97
2022-08-16T03:51:12.336Z,100719.53
2022-08-16T03:53:40.780Z,100701.03
2022-08-16T03:56:19.525Z,100708.84
2022-08-16T03:58:48.538Z,100707.13
2022-08-16T04:01:19.745Z,100714.38
2022-08-16T04:03:46.804Z,100711.63
2022-08-16T04:06:17.196Z,100722.94
2022-08-16T04:08:45.243Z,100718.66
2022-08-16T04:11:12.373Z,100721.13
2022-08-16T04:14:01.554Z,100716.84
2022-08-16T04:16:33.864Z,100730.72
2022-08-16T04:19:04.363Z,100725.28
2022-08-16T04:21:35.636Z,100729.56
2022-08-16T04:24:07.987Z,100734.81
2022-08-16T04:26:36.224Z,100713.97
2022-08-16T04:29:15.215Z,100734.72
2022-08-16T04:31:56.809Z,100736.28
2022-08-16T04:34:30.280Z,100738.75
2022-08-16T04:37:01.460Z,100737.69
2022-08-16T04:39:45.927Z,100735.78
2022-08-16T04:42:17.396Z,100738.97
2022-08-16T04:44:53.633Z,100746.53
2022-08-16T04:47:32.871Z,100745.06
2022-08-16T04:50:14.509Z,100734.25
2022-08-16T04:52:44.238Z,100735.00
2022-08-16T04:55:20.484Z,100740.19
2022-08-16T04:58:00.000Z,100728.38
2022-08-16T05:00:33.960Z,100734.13
2022-08-16T05:03:09.986Z,100724.44
2022-08-16T05:05:45.402Z,100741.53
2022-08-16T05:08:30.851Z,100747.94
2022-08-16T05:11:03.349Z,100752.19
2022-08-16T05:13:41.157Z,100755.88
2022-08-16T05:16:19.927Z,100755.03
2022-08-16T05:18:52.138Z,100757.88
2022-08-16T05:21:22.172Z,100755.44
2022-08-16T05:23:55.998Z,100749.00
2022-08-16T05:26:31.173Z,100748.88
2022-08-16T05:29:03.688Z,100762.75
2022-08-16T05:31:32.895Z,100757.34
2022-08-16T05:34:04.424Z,100749.66
2022-08-16T05:36:36.495Z,100745.38
2022-08-16T05:39:09.578Z,100742.69
2022-08-16T05:41:45.173Z,100748.56
2022-08-16T05:44:23.298Z,100756.81
2022-08-16T05:47:00.378Z,100764.84
2022-08-16T05:49:39.346Z,100754.34
2022-08-16T05:52:17.173Z,100765.22
2022-08-16T05:54:47.427Z,100766.69
2022-08-16T05:57:20.680Z,100772.94
2022-08-16T05:59:50.703Z,100766.69
2022-08-16T06:02:30.733Z,100762.44
2022-08-16T06:05:02.118Z,100746.25
2022-08-16T06:07:29.629Z,100769.69
2022-08-16T06:10:00.392Z,100765.38
2022-08-16T06:12:30.097Z,100768.06
2022-08-16T06:15:01.884Z,100781.75
2022-08-16T06:17:42.833Z,100770.16
2022-08-16T06:20:24.254Z,100765.88
2022-08-16T06:23:03.686Z,100765.88
2022-08-16T06:25:39.562Z,100765.84
2022-08-16T06:28:17.075Z,100770.53
2022-08-16T06:30:59.801Z,100773.50
2022-08-16T06:33:29.368Z,100778.00
2022-08-16T06:36:09.926Z,100756.78
2022-08-16T06:38:39.066Z,100777.25
2022-08-16T06:41:24.360Z,100776.66
2022-08-16T06:43:55.315Z,100769.34
2022-08-16T06:46:39.213Z,100786.56
2022-08-16T06:49:10.991Z,100792.88
2022-08-16T06:51:46.263Z,100791.22
2022-08-16T06:54:16.099Z,100790.19
2022-08-16T06:56:43.524Z,100788.13
2022-08-16T06:59:11.170Z,100780.97
2022-08-16T07:01:43.353Z,100779.63
2022-08-16T07:04:14.014Z,100786.06
2022-08-16T07:07:02.901Z,100789.91
2022-08-16T07:09:30.616Z,100791.00
2022-08-16T07:12:03.186Z,100788.75
2022-08-16T07:14:32.197Z,100803.78
2022-08-16T07:16:59.886Z,100796.53
2022-08-16T07:19:48.330Z,100792.47
2022-08-16T07:22:36.601Z,100789.09
2022-08-16T07:25:13.671Z,100800.88
2022-08-16T07:27:42.101Z,100782.31
2022-08-16T07:30:39.127Z,100790.56
2022-08-16T07:33:01.151Z,100803.31
2022-08-16T07:35:28.467Z,100789.41
2022-08-16T07:37:55.723Z,100810.16
2022-08-16T07:40:49.193Z,100805.63
2022-08-16T07:43:10.458Z,100806.59
2022-08-16T07:45:38.938Z,100781.50
2022-08-16T07:48:11.627Z,100798.63
2022-08-16T07:50:55.502Z,100810.41
2022-08-16T07:53:31.974Z,100813.25
2022-08-16T07:56:00.675Z,100818.38
2022-08-16T07:58:33.861Z,100813.69
2022-08-16T08:01:10.847Z,100823.63
2022-08-16T08:03:48.183Z,100778.19
2022-08-16T08:06:24.884Z,100801.88
2022-08-16T08:09:00.267Z,100804.19
2022-08-16T08:11:33.614Z,100809.56
2022-08-16T08:14:03.572Z,100817.06
2022-08-16T08:16:33.231Z,100814.13
2022-08-16T08:19:02.916Z,100820.38
2022-08-16T08:21:59.667Z,100828.22
2022-08-16T08:24:22.397Z,100758.25
2022-08-16T08:27:02.085Z,100822.00
2022-08-16T08:29:37.534Z,100807.03
2022-08-16T08:32:59.915Z,100827.38
2022-08-16T08:35:03.348Z,100819.25
2022-08-16T08:37:55.050Z,100832.47
2022-08-16T08:40:26.688Z,100832.31
2022-08-16T08:43:11.999Z,100839.28
2022-08-16T08:45:48.428Z,100827.25
2022-08-16T08:48:33.431Z,100839.28
2022-08-16T08:51:05.557Z,100848.94
2022-08-16T08:53:37.810Z,100855.06
2022-08-16T08:56:22.877Z,100853.91
2022-08-16T08:59:00.991Z,100851.22
2022-08-16T09:01:36.745Z,100859.88
2022-08-16T09:04:14.661Z,100854.47
2022-08-16T09:06:44.563Z,100870.09
2022-08-16T09:09:17.023Z,100871.25
2022-08-16T09:11:52.380Z,100868.81
2022-08-16T09:14:24.027Z,100875.19
2022-08-16T09:17:11.990Z,100869.41
2022-08-16T09:19:52.691Z,100878.19
2022-08-16T09:22:28.508Z,100879.47
2022-08-16T09:25:09.738Z,100878.63
2022-08-16T09:27:57.003Z,100892.25
2022-08-16T09:30:34.197Z,100886.88
2022-08-16T09:33:07.625Z,100893.69
2022-08-16T09:35:37.228Z,100877.50
2022-08-16T09:38:08.632Z,100888.56
2022-08-16T09:40:42.556Z,100900.75
2022-08-16T09:43:53.270Z,100891.97
2022-08-16T09:46:48.102Z,100893.94
2022-08-16T09:48:55.911Z,100905.84
2022-08-16T09:51:30.650Z,100898.50
2022-08-16T09:54:05.579Z,100880.31
2022-08-16T09:56:35.404Z,100892.81
2022-08-16T09:59:08.245Z,100897.34
2022-08-16T10:01:43.653Z,100896.19
2022-08-16T10:04:30.497Z,100897.06
2022-08-16T10:07:15.429Z,100902.16
2022-08-16T10:09:54.803Z,100859.03
2022-08-16T10:12:55.709Z,100877.66
2022-08-16T10:15:25.996Z,100895.38
2022-08-16T10:18:01.594Z,100883.19
2022-08-16T10:20:34.835Z,100886.72
2022-08-16T10:23:06.948Z,100884.25
2022-08-16T10:27:18.137Z,100886.78
2022-08-16T10:28:32.612Z,100856.38
2022-08-16T10:31:11.946Z,100888.47
2022-08-16T10:33:44.783Z,100888.88
2022-08-16T10:36:38.916Z,100895.41
2022-08-16T10:39:02.467Z,100890.38
2022-08-16T10:41:32.843Z,100900.00
2022-08-16T10:44:09.585Z,100897.03
2022-08-16T10:46:41.716Z,100891.16
2022-08-16T10:49:16.878Z,100895.53
2022-08-16T10:52:01.244Z,100891.94
2022-08-16T10:54:32.093Z,100881.13
2022-08-16T10:57:03.893Z,100867.31
2022-08-16T10:59:46.924Z,100884.25
2022-08-16T11:02:58.100Z,100897.72
2022-08-16T11:05:16.820Z,100902.66
2022-08-16T11:07:52.227Z,100895.09
2022-08-16T11:17:02.727Z,100907.88
2022-08-16T11:19:06.515Z,100902.31
2022-08-16T11:24:42.937Z,100908.91
2022-08-16T11:27:20.146Z,100912.13
2022-08-16T11:29:53.524Z,100911.41
2022-08-16T11:32:31.379Z,100915.59
2022-08-16T11:35:10.658Z,100912.41
2022-08-16T11:40:44.436Z,100917.84
2022-08-16T11:43:16.843Z,100924.03
2022-08-16T11:45:54.245Z,100915.56
2022-08-16T11:48:28.483Z,100920.56
2022-08-16T11:50:56.622Z,100924.00
2022-08-16T11:53:24.669Z,100930.72
2022-08-16T11:55:54.640Z,100905.06
2022-08-16T11:58:26.162Z,100921.25
2022-08-16T12:00:57.693Z,100929.78
2022-08-16T12:03:34.561Z,100938.88
2022-08-16T12:06:25.257Z,100933.94
2022-08-16T12:09:00.954Z,100934.75
2022-08-16T12:11:31.296Z,100932.34
2022-08-16T12:14:04.312Z,100929.03
2022-08-16T12:16:34.449Z,100914.28
2022-08-16T12:19:10.441Z,100944.19
2022-08-16T12:21:58.212Z,100938.03
2022-08-16T12:24:27.968Z,100947.09
2022-08-16T12:26:56.437Z,100944.50
2022-08-16T12:29:25.891Z,100948.31
2022-08-16T12:32:01.398Z,100920.31
2022-08-16T12:34:48.030Z,100938.47
2022-08-16T12:37:20.480Z,100950.53
2022-08-16T12:39:51.094Z,100937.88
2022-08-16T12:42:20.532Z,100939.47
2022-08-16T12:44:50.393Z,100945.50
2022-08-16T12:47:37.819Z,100938.53
2022-08-16T12:50:10.466Z,100940.53
2022-08-16T12:52:44.417Z,100932.91
2022-08-16T12:55:23.760Z,100944.81
2022-08-16T12:57:57.873Z,100951.66
2022-08-16T13:00:33.123Z,100944.03
2022-08-16T13:03:03.861Z,100943.63
2022-08-16T13:05:45.063Z,100943.53
2022-08-16T13:08:21.192Z,100935.88
2022-08-16T13:10:50.683Z,100942.13
2022-08-16T13:13:24.947Z,100944.13
2022-08-16T13:16:02.243Z,100940.16
2022-08-16T13:18:35.568Z,100938.72
2022-08-16T13:21:08.246Z,100931.06
2022-08-16T13:23:43.337Z,100941.56
2022-08-16T13:26:12.815Z,100955.50
2022-08-16T13:28:47.670Z,100945.13
2022-08-16T13:31:16.944Z,100956.06
2022-08-16T13:33:45.422Z,100964.50
2022-08-16T13:39:01.446Z,100938.81
2022-08-16T13:41:30.209Z,100965.22
2022-08-16T13:44:00.463Z,100957.28
2022-08-16T13:46:30.008Z,100957.44
2022-08-16T13:48:58.025Z,100954.41
2022-08-16T13:51:29.274Z,100961.09
2022-08-16T13:54:03.877Z,100961.91
2022-08-16T13:56:38.814Z,100962.50
2022-08-16T13:59:19.311Z,100964.59
2022-08-16T14:01:55.198Z,100962.59
2022-08-16T14:04:34.143Z,100903.44
2022-08-16T14:07:05.105Z,100960.75
2022-08-16T14:09:36.283Z,100949.41
2022-08-16T14:12:18.012Z,100955.47
2022-08-16T14:14:46.809Z,100962.91
2022-08-16T14:17:14.402Z,100953.25
2022-08-16T14:19:44.798Z,100955.22
2022-08-16T14:22:30.760Z,100950.56
2022-08-16T14:25:00.008Z,100956.09
2022-08-16T14:27:30.543Z,100959.66
2022-08-16T14:29:59.852Z,100957.38
2022-08-16T14:32:34.488Z,100954.28
2022-08-16T14:35:15.266Z,100960.09
2022-08-16T14:37:43.395Z,100948.28
2022-08-16T14:40:16.070Z,100955.84
2022-08-16T14:42:46.773Z,100955.00
2022-08-16T14:45:20.584Z,100955.25
2022-08-16T14:47:49.852Z,100945.31
2022-08-16T14:50:24.450Z,100957.09
2022-08-16T14:53:04.402Z,100947.44
2022-08-16T14:55:35.458Z,100956.09
2022-08-16T14:58:05.207Z,100947.16
2022-08-16T15:00:34.659Z,100954.41
2022-08-16T15:03:09.811Z,100948.72
2022-08-16T15:05:39.716Z,100940.50
2022-08-16T15:08:07.585Z,100938.50
2022-08-16T15:10:37.373Z,100941.91
2022-08-16T15:13:09.568Z,100951.44
2022-08-16T15:15:38.735Z,100959.81
2022-08-16T15:18:12.084Z,100944.19
2022-08-16T15:20:41.434Z,100945.03
2022-08-16T15:23:10.773Z,100964.34
2022-08-16T15:25:58.633Z,100945.56
2022-08-16T15:28:33.045Z,100961.34
2022-08-16T15:31:03.930Z,100959.88
2022-08-16T15:33:35.139Z,100967.13
2022-08-16T15:36:04.583Z,100951.66
2022-08-16T15:38:57.261Z,100957.47
2022-08-16T15:41:53.873Z,100965.38
2022-08-16T15:44:25.314Z,100967.50
2022-08-16T15:47:02.501Z,100959.94
2022-08-16T15:49:38.095Z,100960.22
2022-08-16T15:52:30.225Z,100972.44
2022-08-16T15:55:07.430Z,100962.72
2022-08-16T15:57:41.575Z,100969.81
2022-08-16T16:00:15.025Z,100978.06
2022-08-16T16:03:25.517Z,100977.75
2022-08-16T16:05:59.462Z,100983.69
2022-08-16T16:08:28.907Z,100989.59
2022-08-16T16:11:03.467Z,100988.03
2022-08-16T16:13:34.040Z,100969.53
2022-08-16T16:16:04.280Z,100990.00
2022-08-16T16:18:40.433Z,100996.69
2022-08-16T16:21:20.331Z,100998.41
2022-08-16T16:23:55.002Z,101007.47
2022-08-16T16:26:26.868Z,101013.84
2022-08-16T16:29:08.167Z,100996.06
2022-08-16T16:31:43.974Z,101017.81
2022-08-16T16:34:26.374Z,101012.09
2022-08-16T16:36:59.881Z,100995.38
2022-08-16T16:39:26.995Z,101018.63
2022-08-16T16:41:59.994Z,101022.00
2022-08-16T16:44:33.739Z,101033.00
2022-08-16T16:47:03.838Z,101035.38
2022-08-16T16:49:32.908Z,101022.72
2022-08-16T16:52:06.709Z,101048.84
2022-08-16T16:54:35.647Z,101048.25
2022-08-16T16:57:03.046Z,101052.44
2022-08-16T16:59:30.497Z,101052.81
2022-08-16T17:02:38.635Z,101061.88
2022-08-16T17:04:48.658Z,101067.53
2022-08-16T17:07:16.734Z,101063.50
2022-08-16T17:09:46.835Z,101074.66
2022-08-16T17:12:23.614Z,101067.34
2022-08-16T17:15:02.293Z,101066.84
2022-08-16T17:17:29.694Z,101082.03
2022-08-16T17:19:56.902Z,101072.75
2022-08-16T17:22:32.708Z,101088.78
2022-08-16T17:25:01.234Z,101090.97
2022-08-16T17:27:33.141Z,101088.28
2022-08-16T17:30:18.787Z,101086.94
2022-08-16T17:32:54.604Z,101094.25
2022-08-16T17:35:40.586Z,101090.91
2022-08-16T17:38:11.251Z,101085.78
2022-08-16T17:40:55.876Z,101079.31
2022-08-16T17:43:33.621Z,101094.19
2022-08-16T17:46:51.244Z,101079.09
2022-08-16T17:49:25.616Z,101100.84
2022-08-16T17:51:53.744Z,101096.94
2022-08-16T17:54:30.911Z,101106.34
2022-08-16T17:57:00.862Z,101102.31
2022-08-16T17:59:29.562Z,101104.88
2022-08-16T18:01:57.834Z,101095.97
2022-08-16T18:04:43.614Z,101114.53
2022-08-16T18:07:13.277Z,101113.56
2022-08-16T18:09:40.887Z,101110.06
2022-08-16T18:12:44.759Z,101123.22
2022-08-16T18:15:12.349Z,101116.53
2022-08-16T18:17:39.712Z,101118.72
2022-08-16T18:20:29.353Z,101121.41
2022-08-16T18:23:15.719Z,101124.59
2022-08-16T18:25:48.946Z,101130.59
2022-08-16T18:28:17.937Z,101139.00
2022-08-16T18:30:50.918Z,101135.00
2022-08-16T18:33:21.169Z,101124.09
2022-08-16T18:35:54.311Z,101141.56
2022-08-16T18:38:24.339Z,101148.78
2022-08-16T18:40:51.479Z,101148.88
2022-08-16T18:43:54.721Z,101152.78
2022-08-16T18:46:09.360Z,101140.66
2022-08-16T18:48:36.430Z,101166.47
2022-08-16T18:51:09.128Z,101169.25
2022-08-16T18:53:38.662Z,101166.84
2022-08-16T18:56:05.988Z,101150.78
2022-08-16T18:58:34.049Z,101159.72
2022-08-16T19:01:01.824Z,101178.53
2022-08-16T19:03:33.048Z,101179.59
2022-08-16T19:06:11.149Z,101186.22
2022-08-16T19:08:41.909Z,101180.44
2022-08-16T19:11:23.340Z,101140.41
2022-08-16T19:13:50.648Z,101177.97
2022-08-16T19:16:17.882Z,101188.84
2022-08-16T19:18:49.475Z,101188.13
2022-08-16T19:21:16.669Z,101191.03
2022-08-16T19:23:45.094Z,101184.78
2022-08-16T19:26:24.645Z,101190.16
2022-08-16T19:28:59.734Z,101177.44
2022-08-16T19:31:33.131Z,101197.25
2022-08-16T19:34:03.811Z,101197.25
2022-08-16T19:36:38.222Z,101187.59
2022-08-16T19:39:13.709Z,101200.91
2022-08-16T19:41:51.934Z,101194.94
2022-08-16T19:44:22.349Z,101192.09
2022-08-16T19:46:49.968Z,101185.75
2022-08-16T19:49:17.330Z,101189.56
2022-08-16T19:51:48.171Z,101193.09
2022-08-16T19:54:16.232Z,101149.50
2022-08-16T19:56:43.663Z,101189.91
2022-08-16T19:59:19.998Z,101192.34
2022-08-16T20:01:51.743Z,101170.28
2022-08-16T20:04:21.483Z,101196.22
2022-08-16T20:06:48.628Z,101198.16
2022-08-16T20:09:16.224Z,101191.09
2022-08-16T20:11:47.415Z,101157.78
2022-08-16T20:14:24.717Z,101178.31
2022-08-16T20:16:58.856Z,101182.50
2022-08-16T20:19:28.546Z,101184.44
2022-08-16T20:22:01.628Z,101164.28
2022-08-16T20:24:34.703Z,101174.41
2022-08-16T20:27:06.438Z,101173.31
2022-08-16T20:29:34.538Z,101174.41
2022-08-16T20:32:03.263Z,101188.78
2022-08-16T20:34:30.935Z,101188.19
2022-08-16T20:36:57.917Z,101173.94
2022-08-16T20:39:25.064Z,101184.31
2022-08-16T20:41:52.295Z,101173.19
2022-08-16T20:44:22.606Z,101179.63
2022-08-16T20:46:50.156Z,101192.72
2022-08-16T20:49:17.205Z,101181.72
2022-08-16T20:51:46.689Z,101201.09
2022-08-16T20:54:17.051Z,101202.22
2022-08-16T20:56:44.031Z,101193.84
2022-08-16T20:59:11.066Z,101205.22
2022-08-16T21:01:46.662Z,101188.09
2022-08-16T21:04:22.636Z,101197.53
2022-08-16T21:06:54.353Z,101203.97
2022-08-16T21:09:33.515Z,101203.22
2022-08-16T21:12:10.056Z,101211.47
2022-08-16T21:14:42.882Z,101209.03
2022-08-16T21:17:13.000Z,101217.09
2022-08-16T21:19:40.390Z,101219.03
2022-08-16T21:22:15.128Z,101206.84
2022-08-16T21:24:44.244Z,101218.38
2022-08-16T21:27:18.041Z,101222.09
2022-08-16T21:29:46.044Z,101211.91
2022-08-16T21:32:35.115Z,101205.94
2022-08-16T21:35:11.688Z,101218.50
2022-08-16T21:37:40.017Z,101227.41
2022-08-16T21:40:10.113Z,101210.47
2022-08-16T21:42:39.743Z,101241.22
2022-08-16T21:45:09.018Z,101240.59
2022-08-16T21:47:36.058Z,101236.84
2022-08-16T21:50:03.489Z,101246.28
2022-08-16T21:52:30.552Z,101249.06
2022-08-16T21:54:57.840Z,101239.84
2022-08-16T21:57:25.194Z,101206.81
2022-08-16T21:59:54.945Z,101243.19
2022-08-16T22:02:25.909Z,101240.50
2022-08-16T22:05:05.324Z,101235.53
2022-08-16T22:07:32.409Z,101247.38
2022-08-16T22:09:59.368Z,101204.16
2022-08-16T22:12:47.147Z,101249.09
2022-08-16T22:15:15.262Z,101240.50
2022-08-16T22:17:42.706Z,101249.59
2022-08-16T22:20:11.202Z,101259.16
2022-08-16T22:22:38.333Z,101249.69
2022-08-16T22:25:06.099Z,101257.00
2022-08-16T22:27:33.248Z,101255.28
2022-08-16T22:30:00.310Z,101262.28
2022-08-16T22:32:27.920Z,101256.34
2022-08-16T22:34:55.728Z,101259.91
2022-08-16T22:37:27.924Z,101267.19
2022-08-16T22:39:55.003Z,101252.66
2022-08-16T22:42:23.118Z,101245.06
2022-08-16T22:44:50.145Z,101239.91
2022-08-16T22:47:17.190Z,101256.13
2022-08-16T22:49:45.198Z,101247.53
2022-08-16T22:52:12.203Z,101245.16
2022-08-16T22:54:48.217Z,101258.72
2022-08-16T22:57:16.201Z,101253.63
2022-08-16T22:59:43.209Z,101268.66
2022-08-16T23:02:10.566Z,101259.84
2022-08-16T23:04:37.659Z,101261.66
2022-08-16T23:07:05.814Z,101268.97
2022-08-16T23:09:32.834Z,101263.25
2022-08-16T23:12:07.254Z,101267.53
2022-08-16T23:14:34.372Z,101268.59
2022-08-16T23:17:01.430Z,101255.94
2022-08-16T23:19:29.444Z,101253.50
2022-08-16T23:21:57.401Z,101256.94
2022-08-16T23:24:27.581Z,101266.78
2022-08-16T23:26:54.610Z,101261.19
2022-08-16T23:29:26.596Z,101261.19
2022-08-16T23:32:08.285Z,101267.31
2022-08-16T23:34:35.292Z,101231.06
2022-08-16T23:37:02.468Z,101261.00
2022-08-16T23:39:29.944Z,101253.25
2022-08-16T23:41:57.255Z,101256.81
2022-08-16T23:44:57.430Z,101245.75
2022-08-16T23:47:12.320Z,101240.41
2022-08-16T23:50:00.633Z,101242.13
2022-08-16T23:52:42.320Z,101257.56
2022-08-16T23:55:17.675Z,101247.47
2022-08-16T23:57:46.269Z,101248.75
